Time;durP1;ratioP1;P1;durP2;ratioP2;P2;SDS_P1;SDS_P2;PMS_P1;PMS_P2;Temp;Humidity;BMP_temperature;BMP_pressure;BME280_temperature;BME280_humidity;BME280_pressure;Samples;Min_cycle;Max_cycle;Signal;HPM_P1;HPM_P2
2022/08/09 00:00:46;;;;;;;2.97;1.55;;;;;;;;;;4947262;28;20049;-66
2022/08/09 00:03:12;;;;;;;3.22;1.70;;;;;;;;;;4949198;28;20328;-66
2022/08/09 00:05:37;;;;;;;4.50;2.03;;;;;;;;;;4947569;28;20498;-65
2022/08/09 00:08:02;;;;;;;2.92;1.63;;;;;;;;;;4946879;28;20405;-67
2022/08/09 00:10:28;;;;;;;3.33;1.30;;;;;;;;;;4947080;28;20647;-65
2022/08/09 00:12:53;;;;;;;4.15;1.80;;;;;;;;;;4947009;28;20429;-65
2022/08/09 00:15:20;;;;;;;3.13;1.80;;;;;;;;;;4946950;28;20511;-66
2022/08/09 00:17:45;;;;;;;3.03;1.60;;;;;;;;;;4948478;28;20345;-67
2022/08/09 00:20:11;;;;;;;4.03;1.63;;;;;;;;;;4946937;28;20360;-66
2022/08/09 00:22:36;;;;;;;5.75;2.28;;;;;;;;;;4946753;28;20392;-65
2022/08/09 00:25:01;;;;;;;6.28;1.98;;;;;;;;;;4948484;28;20038;-66
2022/08/09 00:27:27;;;;;;;4.60;1.73;;;;;;;;;;4947561;28;20437;-66
2022/08/09 00:29:52;;;;;;;5.93;2.10;;;;;;;;;;4950681;28;20325;-66
2022/08/09 00:32:18;;;;;;;5.80;2.13;;;;;;;;;;4950504;28;20048;-65
2022/08/09 00:34:44;;;;;;;3.45;1.55;;;;;;;;;;4950420;28;20022;-65
2022/08/09 00:37:09;;;;;;;6.55;2.25;;;;;;;;;;4950388;28;20456;-65
2022/08/09 00:39:34;;;;;;;4.07;1.40;;;;;;;;;;4951986;28;20417;-65
2022/08/09 00:42:00;;;;;;;5.03;1.83;;;;;;;;;;4951265;28;20429;-66
2022/08/09 00:44:25;;;;;;;4.28;1.90;;;;;;;;;;4951101;28;20527;-66
2022/08/09 00:46:51;;;;;;;5.13;2.03;;;;;;;;;;4950144;28;20463;-66
2022/08/09 00:49:16;;;;;;;3.80;2.00;;;;;;;;;;4950438;28;20471;-66
2022/08/09 00:51:41;;;;;;;4.07;1.95;;;;;;;;;;4950034;28;20026;-66
2022/08/09 00:54:07;;;;;;;3.22;1.42;;;;;;;;;;4950373;28;20424;-66
2022/08/09 00:56:32;;;;;;;3.97;1.60;;;;;;;;;;4951241;28;20057;-66
2022/08/09 00:58:57;;;;;;;2.33;1.40;;;;;;;;;;4950365;28;20487;-65
2022/08/09 01:01:27;;;;;;;6.30;1.70;;;;;;;;;;4951153;28;20422;-66
2022/08/09 01:04:06;;;;;;;5.70;1.70;;;;;;;;;;4968463;28;20368;-65
2022/08/09 01:06:50;;;;;;;4.43;1.80;;;;;;;;;;4984233;28;20440;-66
2022/08/09 01:09:15;;;;;;;3.85;1.50;;;;;;;;;;4984196;28;20400;-67
2022/08/09 01:11:52;;;;;;;3.50;1.63;;;;;;;;;;4969283;28;20420;-66
2022/08/09 01:14:44;;;;;;;4.45;1.65;;;;;;;;;;4969179;28;20472;-67
2022/08/09 01:17:22;;;;;;;4.32;1.40;;;;;;;;;;4969991;28;20468;-65
2022/08/09 01:19:56;;;;;;;3.90;1.63;;;;;;;;;;4969159;28;20079;-66
2022/08/09 01:22:58;;;;;;;3.65;1.80;;;;;;;;;;4969143;28;20452;-65
2022/08/09 01:25:45;;;;;;;5.10;1.67;;;;;;;;;;4971234;28;20425;-66
2022/08/09 01:28:11;;;;;;;3.55;1.90;;;;;;;;;;4968684;28;20482;-66
2022/08/09 01:30:37;;;;;;;4.45;1.77;;;;;;;;;;4969830;28;20436;-65
2022/08/09 01:33:06;;;;;;;4.38;2.00;;;;;;;;;;4970979;28;20475;-65
2022/08/09 01:35:44;;;;;;;2.88;1.52;;;;;;;;;;4969416;28;20490;-65
2022/08/09 01:38:15;;;;;;;8.25;2.15;;;;;;;;;;4984569;28;20391;-65
2022/08/09 01:40:44;;;;;;;3.17;1.63;;;;;;;;;;4970554;28;20432;-65
2022/08/09 01:43:10;;;;;;;4.25;1.67;;;;;;;;;;4969874;28;20447;-66
2022/08/09 01:45:36;;;;;;;3.83;1.73;;;;;;;;;;4968388;28;20382;-65
2022/08/09 01:48:02;;;;;;;4.18;1.73;;;;;;;;;;4969465;28;20341;-66
2022/08/09 01:50:28;;;;;;;2.75;1.40;;;;;;;;;;4971563;28;20505;-65
2022/08/09 01:52:54;;;;;;;3.97;1.60;;;;;;;;;;4968826;28;20030;-65
2022/08/09 01:55:21;;;;;;;4.60;2.15;;;;;;;;;;4970306;28;20052;-65
2022/08/09 01:57:48;;;;;;;3.70;1.60;;;;;;;;;;4968060;28;20365;-65
2022/08/09 02:00:14;;;;;;;5.68;1.40;;;;;;;;;;4968166;28;20501;-65
2022/08/09 02:02:42;;;;;;;2.65;1.30;;;;;;;;;;4969467;28;20387;-66
2022/08/09 02:05:09;;;;;;;2.38;1.60;;;;;;;;;;4969713;28;20128;-65
2022/08/09 02:07:39;;;;;;;2.53;1.50;;;;;;;;;;4968011;28;20441;-65
2022/08/09 02:10:14;;;;;;;3.45;1.55;;;;;;;;;;4969367;28;20120;-65
2022/08/09 02:12:40;;;;;;;2.75;1.30;;;;;;;;;;4968401;28;20387;-65
2022/08/09 02:15:07;;;;;;;4.10;1.25;;;;;;;;;;4968953;28;20330;-65
2022/08/09 02:17:33;;;;;;;3.20;1.40;;;;;;;;;;4984432;28;20344;-65
2022/08/09 02:19:59;;;;;;;3.67;1.60;;;;;;;;;;4984357;28;20373;-65
2022/08/09 02:22:35;;;;;;;4.10;1.50;;;;;;;;;;4969139;28;20088;-66
2022/08/09 02:25:03;;;;;;;4.68;1.63;;;;;;;;;;4968372;28;20535;-65
2022/08/09 02:27:30;;;;;;;2.88;1.48;;;;;;;;;;4968793;28;20387;-65
2022/08/09 02:29:56;;;;;;;4.18;1.60;;;;;;;;;;4968175;28;20052;-66
2022/08/09 02:32:24;;;;;;;2.95;1.50;;;;;;;;;;4969179;28;20459;-65
2022/08/09 02:35:00;;;;;;;3.33;1.45;;;;;;;;;;4968932;28;20502;-65
2022/08/09 02:37:27;;;;;;;2.33;1.40;;;;;;;;;;4967404;28;20383;-65
2022/08/09 02:39:57;;;;;;;3.17;1.25;;;;;;;;;;4984431;28;20052;-65
2022/08/09 02:42:30;;;;;;;4.70;1.50;;;;;;;;;;4969025;28;20466;-65
2022/08/09 02:45:04;;;;;;;2.70;1.60;;;;;;;;;;4967182;28;20519;-65
2022/08/09 02:47:32;;;;;;;4.15;1.50;;;;;;;;;;4968818;28;20428;-65
2022/08/09 02:50:21;;;;;;;3.10;1.50;;;;;;;;;;4966007;28;20464;-65
2022/08/09 02:52:50;;;;;;;4.00;1.95;;;;;;;;;;4969881;28;20336;-65
2022/08/09 02:55:16;;;;;;;4.82;1.80;;;;;;;;;;4983754;28;20025;-65
2022/08/09 02:57:42;;;;;;;2.75;1.38;;;;;;;;;;4969229;28;20088;-65
2022/08/09 03:00:09;;;;;;;2.88;1.65;;;;;;;;;;4969225;28;20475;-65
2022/08/09 03:02:36;;;;;;;1.67;1.20;;;;;;;;;;4968730;28;20458;-65
2022/08/09 03:05:02;;;;;;;4.57;2.00;;;;;;;;;;4966945;28;20325;-66
2022/08/09 03:07:28;;;;;;;3.40;1.67;;;;;;;;;;4968335;28;20448;-65
2022/08/09 03:09:54;;;;;;;3.72;1.33;;;;;;;;;;4984169;28;20542;-65
2022/08/09 03:12:21;;;;;;;4.22;1.63;;;;;;;;;;4968251;28;20395;-65
2022/08/09 03:14:47;;;;;;;3.45;1.75;;;;;;;;;;4983505;28;20354;-65
2022/08/09 03:17:13;;;;;;;4.22;1.40;;;;;;;;;;4967726;28;20368;-65
2022/08/09 03:19:39;;;;;;;2.70;1.30;;;;;;;;;;4969441;28;20022;-65
2022/08/09 03:22:07;;;;;;;3.22;1.45;;;;;;;;;;4968099;28;20029;-65
2022/08/09 03:24:33;;;;;;;2.08;1.25;;;;;;;;;;4966776;28;20368;-65
2022/08/09 03:26:58;;;;;;;2.25;1.10;;;;;;;;;;4968841;28;20053;-65
2022/08/09 03:29:24;;;;;;;2.58;1.20;;;;;;;;;;4967968;28;20447;-65
2022/08/09 03:31:50;;;;;;;4.40;1.50;;;;;;;;;;4968267;28;20455;-65
2022/08/09 03:34:15;;;;;;;2.25;1.33;;;;;;;;;;4966503;28;20351;-65
2022/08/09 03:36:41;;;;;;;2.03;1.38;;;;;;;;;;4966828;28;20345;-65
2022/08/09 03:39:06;;;;;;;3.60;1.40;;;;;;;;;;4969345;28;20489;-67
2022/08/09 03:41:32;;;;;;;1.50;1.15;;;;;;;;;;4968488;28;20448;-65
2022/08/09 03:43:57;;;;;;;2.72;1.33;;;;;;;;;;4967976;28;20416;-65
2022/08/09 03:46:22;;;;;;;1.80;1.40;;;;;;;;;;4969392;28;20155;-65
2022/08/09 03:48:52;;;;;;;3.45;1.67;;;;;;;;;;4967942;28;20033;-66
2022/08/09 03:51:20;;;;;;;2.97;1.55;;;;;;;;;;4966814;28;20041;-66
2022/08/09 03:53:45;;;;;;;3.72;1.60;;;;;;;;;;4966501;28;20538;-65
2022/08/09 03:56:11;;;;;;;2.20;1.30;;;;;;;;;;4983440;28;20499;-66
2022/08/09 03:58:36;;;;;;;2.42;1.30;;;;;;;;;;4966389;28;20455;-65
2022/08/09 04:01:02;;;;;;;1.70;1.17;;;;;;;;;;4967778;28;20478;-65
2022/08/09 04:03:27;;;;;;;3.40;1.60;;;;;;;;;;4972175;28;20376;-66
2022/08/09 04:05:53;;;;;;;2.45;1.35;;;;;;;;;;4970365;28;20348;-65
2022/08/09 04:08:18;;;;;;;3.80;1.55;;;;;;;;;;4969912;28;20360;-65
2022/08/09 04:10:44;;;;;;;4.05;1.40;;;;;;;;;;4972145;28;20348;-65
2022/08/09 04:13:10;;;;;;;7.25;1.50;;;;;;;;;;4972914;28;20339;-65
2022/08/09 04:15:36;;;;;;;2.67;1.13;;;;;;;;;;4971618;28;20539;-65
2022/08/09 04:18:02;;;;;;;5.88;1.20;;;;;;;;;;4971582;28;20444;-65
2022/08/09 04:20:28;;;;;;;2.75;1.45;;;;;;;;;;4971957;28;20397;-65
2022/08/09 04:22:53;;;;;;;2.78;1.42;;;;;;;;;;4971408;28;20029;-65
2022/08/09 04:25:19;;;;;;;3.40;1.20;;;;;;;;;;4970454;28;20022;-65
2022/08/09 04:27:44;;;;;;;1.60;1.15;;;;;;;;;;4969102;28;20507;-65
2022/08/09 04:30:12;;;;;;;2.28;1.00;;;;;;;;;;4970905;28;20352;-65
2022/08/09 04:32:38;;;;;;;3.08;1.50;;;;;;;;;;4972222;28;20396;-66
2022/08/09 04:35:08;;;;;;;3.10;1.23;;;;;;;;;;4971707;28;20502;-65
2022/08/09 04:37:34;;;;;;;3.95;1.63;;;;;;;;;;4970454;28;20436;-65
2022/08/09 04:40:00;;;;;;;2.13;1.25;;;;;;;;;;4969909;28;20448;-65
2022/08/09 04:42:28;;;;;;;1.17;0.88;;;;;;;;;;4970268;28;20428;-65
2022/08/09 04:44:57;;;;;;;2.65;1.35;;;;;;;;;;4969975;28;20344;-66
2022/08/09 04:47:24;;;;;;;2.42;0.93;;;;;;;;;;4971263;28;20345;-66
2022/08/09 04:49:50;;;;;;;3.55;1.67;;;;;;;;;;4969832;28;20112;-65
2022/08/09 04:52:15;;;;;;;3.58;1.13;;;;;;;;;;4969930;28;20069;-65
2022/08/09 04:54:40;;;;;;;2.28;1.40;;;;;;;;;;4970098;28;20060;-66
2022/08/09 04:57:06;;;;;;;1.88;1.17;;;;;;;;;;4971011;28;20446;-65
2022/08/09 04:59:31;;;;;;;2.92;1.42;;;;;;;;;;4970797;28;20412;-66
2022/08/09 05:01:56;;;;;;;3.65;1.45;;;;;;;;;;4969536;28;20440;-66
2022/08/09 05:04:22;;;;;;;4.63;1.55;;;;;;;;;;4969531;28;20052;-66
2022/08/09 05:06:47;;;;;;;2.85;1.25;;;;;;;;;;4968530;28;20429;-66
2022/08/09 05:09:13;;;;;;;3.88;1.33;;;;;;;;;;4969214;28;20443;-67
2022/08/09 05:11:38;;;;;;;2.55;1.20;;;;;;;;;;4969350;28;20083;-65
2022/08/09 05:14:03;;;;;;;2.25;1.10;;;;;;;;;;4968615;28;20371;-66
2022/08/09 05:16:29;;;;;;;1.95;1.20;;;;;;;;;;4969485;28;20034;-65
2022/08/09 05:18:54;;;;;;;3.60;1.65;;;;;;;;;;4969374;28;20496;-65
2022/08/09 05:21:20;;;;;;;2.00;1.15;;;;;;;;;;4969177;28;20048;-65
2022/08/09 05:23:45;;;;;;;3.38;1.23;;;;;;;;;;4968033;28;20325;-66
2022/08/09 05:26:10;;;;;;;5.28;1.55;;;;;;;;;;4969165;28;20379;-67
2022/08/09 05:28:36;;;;;;;2.03;1.10;;;;;;;;;;4969611;28;20462;-65
2022/08/09 05:31:01;;;;;;;3.83;1.08;;;;;;;;;;4970156;28;20405;-65
2022/08/09 05:33:27;;;;;;;1.95;1.13;;;;;;;;;;4969103;28;20422;-65
2022/08/09 05:35:52;;;;;;;4.22;1.15;;;;;;;;;;4970247;28;20456;-65
2022/08/09 05:38:18;;;;;;;2.65;1.30;;;;;;;;;;4969876;28;20344;-66
2022/08/09 05:40:43;;;;;;;3.95;1.30;;;;;;;;;;4969009;28;20329;-65
2022/08/09 05:43:09;;;;;;;2.17;1.27;;;;;;;;;;4968898;28;20126;-66
2022/08/09 05:45:34;;;;;;;1.77;1.00;;;;;;;;;;4969303;28;20470;-65
2022/08/09 05:47:59;;;;;;;2.28;1.25;;;;;;;;;;4967151;28;20391;-65
2022/08/09 05:50:25;;;;;;;2.75;1.45;;;;;;;;;;4968734;28;20044;-66
2022/08/09 05:52:51;;;;;;;3.13;1.58;;;;;;;;;;4968706;28;20507;-65
2022/08/09 05:55:17;;;;;;;3.65;1.65;;;;;;;;;;4969026;28;20359;-65
2022/08/09 05:57:42;;;;;;;3.85;1.90;;;;;;;;;;4968421;28;20042;-65
2022/08/09 06:00:09;;;;;;;4.13;1.70;;;;;;;;;;4968554;28;20069;-66
2022/08/09 06:02:34;;;;;;;3.38;1.98;;;;;;;;;;4968716;28;20500;-65
2022/08/09 06:04:59;;;;;;;4.20;1.85;;;;;;;;;;4968437;28;20493;-66
2022/08/09 06:07:25;;;;;;;4.03;1.95;;;;;;;;;;4968440;28;20473;-66
2022/08/09 06:09:50;;;;;;;5.47;1.80;;;;;;;;;;4969510;28;20469;-66
2022/08/09 06:12:15;;;;;;;4.75;1.50;;;;;;;;;;4968304;28;20440;-65
2022/08/09 06:14:41;;;;;;;4.07;1.85;;;;;;;;;;4968354;28;20632;-67
2022/08/09 06:17:06;;;;;;;3.67;1.75;;;;;;;;;;4968219;28;20395;-65
2022/08/09 06:19:31;;;;;;;4.80;1.83;;;;;;;;;;4968220;28;20359;-65
2022/08/09 06:21:57;;;;;;;3.78;1.85;;;;;;;;;;4968070;28;20322;-66
2022/08/09 06:24:22;;;;;;;5.57;1.80;;;;;;;;;;4968135;28;20457;-65
2022/08/09 06:26:48;;;;;;;4.30;1.40;;;;;;;;;;4968488;28;20293;-66
2022/08/09 06:29:13;;;;;;;9.05;1.73;;;;;;;;;;4967963;28;20352;-66
2022/08/09 06:31:39;;;;;;;4.18;1.80;;;;;;;;;;4967982;28;20364;-65
2022/08/09 06:34:05;;;;;;;2.75;1.90;;;;;;;;;;4967858;28;20317;-65
2022/08/09 06:36:30;;;;;;;2.70;1.45;;;;;;;;;;4967707;28;20026;-65
2022/08/09 06:38:56;;;;;;;4.13;1.83;;;;;;;;;;4968109;28;20468;-65
2022/08/09 06:41:21;;;;;;;3.05;1.58;;;;;;;;;;4968142;28;20503;-66
2022/08/09 06:43:47;;;;;;;7.47;1.75;;;;;;;;;;4968006;28;20337;-68
2022/08/09 06:46:13;;;;;;;3.92;1.90;;;;;;;;;;4969254;28;20399;-65
2022/08/09 06:48:41;;;;;;;3.35;1.55;;;;;;;;;;4968512;28;20348;-66
2022/08/09 06:51:07;;;;;;;3.67;1.88;;;;;;;;;;4967681;28;20364;-65
2022/08/09 06:53:32;;;;;;;3.55;1.73;;;;;;;;;;4967358;28;20349;-67
2022/08/09 06:55:59;;;;;;;6.70;1.67;;;;;;;;;;4972583;28;20195;-66
2022/08/09 06:58:24;;;;;;;3.42;1.58;;;;;;;;;;4624568;28;10000772;-66
2022/08/09 07:00:50;;;;;;;3.28;1.80;;;;;;;;;;4982232;28;20494;-65
2022/08/09 07:03:15;;;;;;;2.10;1.38;;;;;;;;;;4965725;28;20474;-65
2022/08/09 07:05:40;;;;;;;4.07;1.58;;;;;;;;;;4967277;28;20523;-65
2022/08/09 07:08:06;;;;;;;5.35;1.90;;;;;;;;;;4967600;28;20441;-66
2022/08/09 07:10:32;;;;;;;5.45;1.75;;;;;;;;;;4967399;28;20487;-66
2022/08/09 07:12:58;;;;;;;3.75;1.77;;;;;;;;;;4967947;28;20454;-65
2022/08/09 07:15:24;;;;;;;2.72;1.30;;;;;;;;;;4967610;28;20409;-65
2022/08/09 07:17:49;;;;;;;3.55;1.40;;;;;;;;;;4967538;28;20362;-65
2022/08/09 07:20:15;;;;;;;2.92;1.48;;;;;;;;;;4967229;28;20025;-65
2022/08/09 07:22:40;;;;;;;3.63;1.33;;;;;;;;;;4965384;28;20444;-65
2022/08/09 07:25:06;;;;;;;4.07;1.70;;;;;;;;;;4967036;28;20386;-66
2022/08/09 07:27:32;;;;;;;2.60;1.23;;;;;;;;;;4966434;28;20353;-66
2022/08/09 07:29:58;;;;;;;3.10;1.20;;;;;;;;;;4967454;28;20374;-67
2022/08/09 07:32:24;;;;;;;4.65;1.50;;;;;;;;;;4967453;28;20432;-65
2022/08/09 07:34:49;;;;;;;2.83;1.63;;;;;;;;;;4966981;28;20459;-65
2022/08/09 07:37:15;;;;;;;2.25;1.40;;;;;;;;;;4967168;28;20450;-66
2022/08/09 07:39:40;;;;;;;2.53;1.38;;;;;;;;;;4967112;28;20541;-65
2022/08/09 07:42:05;;;;;;;2.60;1.30;;;;;;;;;;4966781;28;20523;-65
2022/08/09 07:44:31;;;;;;;1.50;0.88;;;;;;;;;;4966991;28;20344;-66
2022/08/09 07:46:56;;;;;;;5.07;1.27;;;;;;;;;;4966801;28;20357;-66
2022/08/09 07:49:22;;;;;;;3.08;1.25;;;;;;;;;;4966551;28;20431;-66
2022/08/09 07:51:47;;;;;;;3.05;1.20;;;;;;;;;;4966734;28;20051;-65
2022/08/09 07:54:13;;;;;;;2.28;1.15;;;;;;;;;;4966733;28;20021;-66
2022/08/09 07:56:38;;;;;;;2.70;1.20;;;;;;;;;;4966571;28;20349;-65
2022/08/09 07:59:04;;;;;;;5.53;1.58;;;;;;;;;;4965974;28;20379;-65
2022/08/09 08:01:29;;;;;;;2.15;1.00;;;;;;;;;;4967243;28;20352;-65
2022/08/09 08:03:54;;;;;;;3.30;1.13;;;;;;;;;;4966629;28;20445;-65
2022/08/09 08:06:20;;;;;;;3.15;1.40;;;;;;;;;;4967208;28;20416;-66
2022/08/09 08:08:46;;;;;;;3.88;1.02;;;;;;;;;;4967103;28;20368;-65
2022/08/09 08:11:11;;;;;;;4.35;1.50;;;;;;;;;;4966599;28;20034;-66
2022/08/09 08:13:37;;;;;;;1.73;1.15;;;;;;;;;;4966414;28;20459;-65
2022/08/09 08:16:02;;;;;;;2.53;1.20;;;;;;;;;;4966599;28;20455;-66
2022/08/09 08:18:27;;;;;;;2.05;1.17;;;;;;;;;;4966428;28;20158;-65
2022/08/09 08:20:53;;;;;;;3.17;1.20;;;;;;;;;;4965119;28;20465;-65
2022/08/09 08:23:19;;;;;;;2.20;0.98;;;;;;;;;;4966436;28;20474;-66
2022/08/09 08:25:46;;;;;;;3.25;1.13;;;;;;;;;;4966392;28;20324;-65
2022/08/09 08:28:12;;;;;;;2.72;1.20;;;;;;;;;;4965868;28;20050;-66
2022/08/09 08:30:37;;;;;;;2.70;1.27;;;;;;;;;;4966678;28;20033;-65
2022/08/09 08:33:02;;;;;;;2.03;1.02;;;;;;;;;;4967065;28;20052;-66
2022/08/09 08:35:28;;;;;;;2.42;0.98;;;;;;;;;;4966259;28;20025;-66
2022/08/09 08:37:55;;;;;;;1.48;0.80;;;;;;;;;;4966237;28;20417;-65
2022/08/09 08:40:20;;;;;;;1.70;0.98;;;;;;;;;;4966216;28;20396;-66
2022/08/09 08:42:46;;;;;;;2.05;1.00;;;;;;;;;;4967446;28;20340;-65
2022/08/09 08:45:12;;;;;;;2.60;1.00;;;;;;;;;;4967301;28;20379;-65
2022/08/09 08:47:39;;;;;;;1.60;0.98;;;;;;;;;;4966260;28;20447;-66
2022/08/09 08:50:05;;;;;;;1.30;0.80;;;;;;;;;;4969877;28;20407;-65
2022/08/09 08:52:31;;;;;;;3.42;1.02;;;;;;;;;;4969699;28;20424;-66
2022/08/09 08:54:58;;;;;;;1.77;1.15;;;;;;;;;;4969746;28;20375;-66
2022/08/09 08:57:25;;;;;;;2.08;0.73;;;;;;;;;;4969723;28;20033;-66
2022/08/09 08:59:51;;;;;;;3.25;1.40;;;;;;;;;;4970476;28;20406;-65
2022/08/09 09:02:30;;;;;;;1.20;0.80;;;;;;;;;;4970157;28;20458;-65
2022/08/09 09:04:57;;;;;;;3.08;1.00;;;;;;;;;;4969573;28;20483;-66
2022/08/09 09:07:24;;;;;;;1.15;0.80;;;;;;;;;;4969503;28;20429;-66
2022/08/09 09:09:51;;;;;;;2.88;0.85;;;;;;;;;;4970984;28;20526;-66
2022/08/09 09:12:18;;;;;;;2.30;1.05;;;;;;;;;;4969487;28;20119;-69
2022/08/09 09:14:45;;;;;;;1.73;1.03;;;;;;;;;;4969226;28;20082;-65
2022/08/09 09:17:11;;;;;;;2.58;1.00;;;;;;;;;;4969790;28;20033;-65
2022/08/09 09:19:36;;;;;;;2.08;0.95;;;;;;;;;;4969516;28;20029;-65
2022/08/09 09:22:07;;;;;;;1.20;0.90;;;;;;;;;;4970086;28;20423;-67
2022/08/09 09:24:50;;;;;;;1.52;0.90;;;;;;;;;;4970240;28;20052;-67
2022/08/09 09:27:24;;;;;;;3.45;1.17;;;;;;;;;;4969338;28;20325;-66
2022/08/09 09:29:50;;;;;;;1.30;0.70;;;;;;;;;;4969176;28;20438;-65
2022/08/09 09:32:26;;;;;;;1.80;1.00;;;;;;;;;;4968931;28;20179;-65
2022/08/09 09:35:06;;;;;;;2.35;1.20;;;;;;;;;;4968865;28;20467;-67
2022/08/09 09:37:31;;;;;;;1.42;1.00;;;;;;;;;;4969320;28;20309;-66
2022/08/09 09:39:57;;;;;;;3.33;0.80;;;;;;;;;;4969062;28;20372;-65
2022/08/09 09:42:24;;;;;;;2.30;0.98;;;;;;;;;;4969118;28;20337;-66
2022/08/09 09:44:55;;;;;;;1.90;0.95;;;;;;;;;;4969174;28;20486;-66
2022/08/09 09:47:20;;;;;;;1.60;0.80;;;;;;;;;;4969986;28;20402;-65
2022/08/09 09:49:50;;;;;;;0.95;0.70;;;;;;;;;;4968848;28;20418;-66
2022/08/09 09:52:16;;;;;;;1.55;0.55;;;;;;;;;;4968659;28;20348;-66
2022/08/09 09:54:43;;;;;;;2.70;1.38;;;;;;;;;;4969536;28;20331;-66
2022/08/09 09:57:13;;;;;;;1.75;0.90;;;;;;;;;;4968797;28;20025;-66
2022/08/09 09:59:38;;;;;;;4.05;1.10;;;;;;;;;;4969185;28;20060;-67
2022/08/09 10:02:05;;;;;;;1.10;0.73;;;;;;;;;;4970852;28;20423;-65
2022/08/09 10:04:30;;;;;;;5.65;1.02;;;;;;;;;;4968359;28;20444;-66
2022/08/09 10:06:56;;;;;;;2.25;0.90;;;;;;;;;;4968373;28;20033;-66
2022/08/09 10:09:21;;;;;;;1.75;0.70;;;;;;;;;;4983277;28;20395;-67
2022/08/09 10:11:47;;;;;;;1.83;0.80;;;;;;;;;;4968148;28;20514;-66
2022/08/09 10:14:28;;;;;;;1.48;0.65;;;;;;;;;;4968360;28;20353;-66
2022/08/09 10:16:53;;;;;;;2.65;0.77;;;;;;;;;;4968156;28;20373;-65
2022/08/09 10:19:19;;;;;;;2.75;0.80;;;;;;;;;;4968189;28;20358;-66
2022/08/09 10:21:47;;;;;;;1.17;0.60;;;;;;;;;;4967935;28;20432;-66
2022/08/09 10:24:13;;;;;;;1.15;0.70;;;;;;;;;;4968276;28;20034;-66
2022/08/09 10:26:39;;;;;;;2.65;0.60;;;;;;;;;;4968193;28;20458;-66
2022/08/09 10:29:05;;;;;;;1.55;0.90;;;;;;;;;;4965937;28;20464;-66
2022/08/09 10:31:30;;;;;;;2.03;0.63;;;;;;;;;;4968810;28;20452;-65
2022/08/09 10:33:55;;;;;;;1.30;0.90;;;;;;;;;;4968470;28;20444;-66
2022/08/09 10:36:21;;;;;;;1.52;0.68;;;;;;;;;;4967782;28;20387;-65
2022/08/09 10:38:46;;;;;;;2.05;0.90;;;;;;;;;;4983099;28;20376;-68
2022/08/09 10:41:14;;;;;;;1.48;0.73;;;;;;;;;;4968034;28;20516;-66
2022/08/09 10:43:44;;;;;;;2.17;1.02;;;;;;;;;;4967817;28;20025;-65
2022/08/09 10:46:38;;;;;;;2.17;0.73;;;;;;;;;;4966548;28;20432;-65
2022/08/09 10:49:16;;;;;;;3.42;0.77;;;;;;;;;;4969573;28;20397;-67
2022/08/09 10:51:54;;;;;;;2.40;0.52;;;;;;;;;;4967668;28;20037;-65
2022/08/09 10:54:24;;;;;;;1.10;0.90;;;;;;;;;;4967692;28;20343;-66
2022/08/09 10:57:06;;;;;;;1.83;0.90;;;;;;;;;;4966003;28;20360;-65
2022/08/09 10:59:32;;;;;;;1.23;0.80;;;;;;;;;;4967468;28;20340;-66
2022/08/09 11:01:57;;;;;;;1.17;0.90;;;;;;;;;;4967273;28;20348;-66
2022/08/09 11:04:27;;;;;;;0.95;0.75;;;;;;;;;;4968284;28;20021;-66
2022/08/09 11:06:59;;;;;;;1.95;0.85;;;;;;;;;;4968214;28;20333;-66
2022/08/09 11:09:37;;;;;;;1.60;0.77;;;;;;;;;;4967136;28;20060;-66
2022/08/09 11:12:23;;;;;;;2.67;0.60;;;;;;;;;;4967020;28;20373;-71
2022/08/09 11:15:00;;;;;;;0.85;0.63;;;;;;;;;;4967661;28;20371;-66
2022/08/09 11:17:28;;;;;;;1.13;0.73;;;;;;;;;;4967713;28;20426;-66
2022/08/09 11:20:08;;;;;;;1.85;0.60;;;;;;;;;;4967251;28;20340;-67
2022/08/09 11:22:39;;;;;;;1.27;0.63;;;;;;;;;;4967241;28;20041;-67
2022/08/09 11:25:07;;;;;;;0.98;0.52;;;;;;;;;;4967005;28;20348;-67
2022/08/09 11:27:43;;;;;;;1.47;0.80;;;;;;;;;;4965294;28;20423;-67
2022/08/09 11:30:33;;;;;;;1.35;0.70;;;;;;;;;;4968499;28;20483;-67
2022/08/09 11:33:12;;;;;;;1.10;0.50;;;;;;;;;;4970620;28;20482;-66
2022/08/09 11:35:52;;;;;;;1.70;0.68;;;;;;;;;;4966778;28;20255;-66
2022/08/09 11:38:31;;;;;;;1.10;0.52;;;;;;;;;;4966755;28;20061;-68
2022/08/09 11:41:01;;;;;;;1.27;0.65;;;;;;;;;;4967126;28;20482;-67
2022/08/09 11:43:27;;;;;;;1.15;0.70;;;;;;;;;;4967846;28;20447;-66
2022/08/09 11:45:56;;;;;;;1.45;0.60;;;;;;;;;;4966921;28;20026;-66
2022/08/09 11:48:28;;;;;;;1.05;0.75;;;;;;;;;;4968161;28;20427;-66
2022/08/09 11:50:57;;;;;;;2.83;0.75;;;;;;;;;;4967057;28;20348;-67
2022/08/09 11:53:24;;;;;;;1.67;0.45;;;;;;;;;;4967188;28;20131;-65
2022/08/09 11:55:51;;;;;;;2.92;1.02;;;;;;;;;;4967762;28;20021;-66
2022/08/09 11:58:19;;;;;;;0.88;0.60;;;;;;;;;;4967603;28;20049;-69
2022/08/09 12:00:55;;;;;;;2.10;0.75;;;;;;;;;;4967262;28;20353;-65
2022/08/09 12:03:23;;;;;;;1.08;0.75;;;;;;;;;;4967425;28;20444;-66
2022/08/09 12:05:50;;;;;;;2.88;1.08;;;;;;;;;;4966862;28;20415;-66
2022/08/09 12:08:17;;;;;;;1.42;0.60;;;;;;;;;;4966662;28;20441;-65
2022/08/09 12:10:53;;;;;;;0.93;0.65;;;;;;;;;;4966521;28;20379;-66
2022/08/09 12:13:37;;;;;;;3.22;0.57;;;;;;;;;;4968231;28;20427;-66
2022/08/09 12:16:05;;;;;;;6.60;0.85;;;;;;;;;;4966661;28;20387;-66
2022/08/09 12:18:31;;;;;;;0.98;0.50;;;;;;;;;;4966839;28;20396;-67
2022/08/09 12:20:58;;;;;;;1.65;0.80;;;;;;;;;;4968878;28;20383;-67
2022/08/09 12:23:23;;;;;;;2.30;0.88;;;;;;;;;;4967953;28;20444;-65
2022/08/09 12:25:50;;;;;;;0.65;0.50;;;;;;;;;;4970584;28;20448;-65
2022/08/09 12:28:22;;;;;;;1.58;0.70;;;;;;;;;;4968439;28;20468;-65
2022/08/09 12:30:48;;;;;;;1.48;0.52;;;;;;;;;;4971182;28;20452;-66
2022/08/09 12:33:14;;;;;;;1.67;0.80;;;;;;;;;;4970273;28;20060;-66
2022/08/09 12:35:40;;;;;;;0.93;0.50;;;;;;;;;;4970311;28;20444;-66
2022/08/09 12:38:20;;;;;;;1.17;0.60;;;;;;;;;;4970215;28;20308;-66
2022/08/09 12:40:48;;;;;;;1.15;0.60;;;;;;;;;;4970203;28;20408;-66
2022/08/09 12:43:15;;;;;;;3.30;1.15;;;;;;;;;;4971500;28;20436;-66
2022/08/09 12:45:44;;;;;;;0.80;0.60;;;;;;;;;;4970389;28;20375;-66
2022/08/09 12:48:09;;;;;;;;;;;;;;;;;;4970935;28;20059;-67
2022/08/09 12:50:36;;;;;;;1.15;0.52;;;;;;;;;;4970033;28;20328;-66
2022/08/09 12:53:01;;;;;;;1.67;0.80;;;;;;;;;;4968573;28;20502;-66
2022/08/09 12:55:30;;;;;;;0.70;0.50;;;;;;;;;;4968658;28;20459;-68
2022/08/09 12:57:55;;;;;;;1.70;0.40;;;;;;;;;;4969868;28;20096;-66
2022/08/09 13:00:28;;;;;;;1.63;1.00;;;;;;;;;;4969790;28;20051;-67
2022/08/09 13:02:54;;;;;;;2.65;0.55;;;;;;;;;;4969673;28;20444;-66
2022/08/09 13:05:23;;;;;;;2.03;0.90;;;;;;;;;;4970968;28;20400;-66
2022/08/09 13:08:13;;;;;;;1.58;0.75;;;;;;;;;;4969979;28;20223;-66
2022/08/09 13:10:59;;;;;;;1.73;0.90;;;;;;;;;;4969808;28;20108;-66
2022/08/09 13:13:39;;;;;;;0.85;0.50;;;;;;;;;;4969407;28;20048;-67
2022/08/09 13:16:07;;;;;;;1.90;0.60;;;;;;;;;;4969402;28;20349;-65
2022/08/09 13:18:47;;;;;;;1.20;0.60;;;;;;;;;;4971009;28;20090;-66
2022/08/09 13:21:25;;;;;;;0.70;0.40;;;;;;;;;;4970125;28;20030;-66
2022/08/09 13:23:59;;;;;;;1.42;0.65;;;;;;;;;;4969934;28;20042;-65
2022/08/09 13:26:31;;;;;;;4.10;0.60;;;;;;;;;;4969828;28;20482;-66
2022/08/09 13:29:19;;;;;;;1.88;0.60;;;;;;;;;;4968845;28;20238;-66
2022/08/09 13:32:02;;;;;;;1.00;0.57;;;;;;;;;;4969356;28;20128;-66
2022/08/09 13:34:32;;;;;;;1.15;0.73;;;;;;;;;;4968453;28;20478;-67
2022/08/09 13:36:59;;;;;;;0.95;0.75;;;;;;;;;;4968938;28;20034;-66
2022/08/09 13:39:25;;;;;;;1.67;0.90;;;;;;;;;;4969357;28;20075;-66
2022/08/09 13:41:51;;;;;;;2.35;0.68;;;;;;;;;;4969297;28;20403;-66
2022/08/09 13:44:16;;;;;;;2.08;0.70;;;;;;;;;;4969251;28;20479;-66
2022/08/09 13:46:42;;;;;;;1.35;0.70;;;;;;;;;;4969099;28;20456;-67
2022/08/09 13:49:07;;;;;;;0.73;0.50;;;;;;;;;;4968976;28;20484;-66
2022/08/09 13:51:33;;;;;;;1.02;0.60;;;;;;;;;;4969086;28;20451;-66
2022/08/09 13:53:58;;;;;;;2.60;0.60;;;;;;;;;;4969029;28;20436;-66
2022/08/09 13:56:23;;;;;;;1.20;0.60;;;;;;;;;;4969283;28;20441;-65
2022/08/09 13:58:52;;;;;;;1.35;0.70;;;;;;;;;;4968758;28;20441;-66
2022/08/09 14:01:18;;;;;;;0.77;0.40;;;;;;;;;;4968768;28;20463;-66
2022/08/09 14:03:43;;;;;;;0.75;0.52;;;;;;;;;;4967125;28;20471;-66
2022/08/09 14:06:10;;;;;;;1.38;0.52;;;;;;;;;;4968712;28;20344;-66
2022/08/09 14:08:35;;;;;;;0.50;0.40;;;;;;;;;;4967163;28;20348;-66
2022/08/09 14:11:01;;;;;;;0.88;0.45;;;;;;;;;;4968478;28;20360;-66
2022/08/09 14:13:26;;;;;;;1.77;0.70;;;;;;;;;;4969008;28;20515;-66
2022/08/09 14:15:52;;;;;;;0.95;0.60;;;;;;;;;;4969523;28;20450;-65
2022/08/09 14:18:17;;;;;;;0.93;0.73;;;;;;;;;;4968378;28;20527;-66
2022/08/09 14:20:42;;;;;;;1.27;0.60;;;;;;;;;;4968178;28;20440;-69
2022/08/09 14:23:08;;;;;;;0.60;0.50;;;;;;;;;;4968103;28;20443;-66
2022/08/09 14:25:33;;;;;;;1.30;0.70;;;;;;;;;;4968095;28;20498;-66
2022/08/09 14:27:58;;;;;;;0.93;0.50;;;;;;;;;;4967619;28;20380;-66
2022/08/09 14:30:24;;;;;;;1.45;0.32;;;;;;;;;;4968215;28;20425;-67
2022/08/09 14:32:49;;;;;;;0.50;0.40;;;;;;;;;;4968330;28;20124;-68
2022/08/09 14:35:14;;;;;;;0.45;0.30;;;;;;;;;;4968779;28;20403;-65
2022/08/09 14:37:40;;;;;;;0.93;0.40;;;;;;;;;;4967947;28;20447;-66
2022/08/09 14:40:06;;;;;;;1.10;0.50;;;;;;;;;;4968391;28;20455;-66
2022/08/09 14:42:31;;;;;;;1.48;0.45;;;;;;;;;;4967846;28;20511;-65
2022/08/09 14:44:56;;;;;;;0.90;0.47;;;;;;;;;;4968148;28;20487;-66
2022/08/09 14:47:22;;;;;;;1.02;0.60;;;;;;;;;;4966807;28;20026;-70